Time;durP1;ratioP1;P1;durP2;ratioP2;P2;SDS_P1;SDS_P2;PMS_P1;PMS_P2;Temp;Humidity;BMP_temperature;BMP_pressure;BME280_temperature;BME280_humidity;BME280_pressure;Samples;Min_cycle;Max_cycle;Signal;HPM_P1;HPM_P2
2022/05/29 00:00:49;;;;;;;3.53;0.80;;;24.40;33.60;;;;;;5136758;28;20021;-36
2022/05/29 00:03:15;;;;;;;1.90;0.60;;;24.30;33.70;;;;;;5138801;27;20027;-37
2022/05/29 00:05:42;;;;;;;1.88;0.63;;;24.30;33.70;;;;;;5139247;28;20035;-36
2022/05/29 00:08:11;;;;;;;2.25;0.50;;;24.30;33.70;;;;;;5139260;28;20037;-38
2022/05/29 00:10:38;;;;;;;2.03;0.60;;;24.30;33.70;;;;;;5138218;28;20023;-37
2022/05/29 00:13:04;;;;;;;1.90;0.60;;;24.30;33.70;;;;;;5138761;28;20449;-36
2022/05/29 00:15:30;;;;;;;2.50;0.70;;;24.40;33.70;;;;;;5140107;27;20023;-36
2022/05/29 00:17:56;;;;;;;2.38;0.57;;;24.30;33.70;;;;;;5143243;27;20042;-39
2022/05/29 00:20:22;;;;;;;2.35;0.55;;;24.30;33.70;;;;;;5142060;27;20038;-36
2022/05/29 00:22:48;;;;;;;1.48;0.50;;;24.30;33.70;;;;;;5137077;27;20047;-35
2022/05/29 00:25:14;;;;;;;2.55;0.65;;;24.30;33.70;;;;;;5137246;27;20033;-36
2022/05/29 00:27:39;;;;;;;1.25;0.30;;;24.30;33.80;;;;;;5136752;27;20466;-35
2022/05/29 00:30:07;;;;;;;2.35;0.70;;;24.30;33.90;;;;;;5136852;27;20062;-35
2022/05/29 00:32:33;;;;;;;2.05;0.55;;;24.30;33.80;;;;;;5136779;27;20018;-35
2022/05/29 00:34:59;;;;;;;2.55;0.55;;;24.30;33.80;;;;;;5137353;27;20023;-37
2022/05/29 00:37:25;;;;;;;1.88;0.80;;;24.30;33.90;;;;;;5141807;27;20069;-36
2022/05/29 00:39:51;;;;;;;1.75;0.60;;;24.30;33.90;;;;;;5141460;27;20024;-36
2022/05/29 00:42:19;;;;;;;3.20;0.68;;;24.30;33.90;;;;;;5122187;27;20007;-36
2022/05/29 00:44:45;;;;;;;1.90;0.80;;;24.30;33.90;;;;;;5138322;27;20023;-36
2022/05/29 00:47:13;;;;;;;2.83;0.70;;;24.30;33.90;;;;;;5139594;27;20527;-37
2022/05/29 00:49:40;;;;;;;1.77;0.70;;;24.20;33.90;;;;;;5140710;27;20087;-38
2022/05/29 00:52:28;;;;;;;2.10;0.60;;;24.30;34.00;;;;;;5142153;27;20027;-38
2022/05/29 00:55:02;;;;;;;1.63;0.60;;;24.30;34.00;;;;;;5142854;27;20481;-40
2022/05/29 00:57:31;;;;;;;1.52;0.43;;;24.20;34.00;;;;;;5142623;27;20039;-39
2022/05/29 01:00:11;;;;;;;2.17;0.73;;;24.30;34.00;;;;;;5123830;27;20126;-40
2022/05/29 01:02:37;;;;;;;;;;;24.20;34.00;;;;;;5138558;27;20062;-37
2022/05/29 01:05:04;;;;;;;2.03;0.63;;;24.30;34.00;;;;;;5139275;27;19911;-38
2022/05/29 01:07:30;;;;;;;1.98;0.77;;;24.30;34.10;;;;;;5139873;27;20007;-39
2022/05/29 01:09:56;;;;;;;1.35;0.47;;;24.20;34.00;;;;;;5138237;27;20019;-39
2022/05/29 01:12:31;;;;;;;1.75;0.55;;;24.20;34.00;;;;;;5138257;27;20521;-38
2022/05/29 01:15:05;;;;;;;1.85;0.55;;;24.20;34.10;;;;;;5137866;27;20023;-37
2022/05/29 01:17:50;;;;;;;1.48;0.60;;;24.20;34.10;;;;;;5137764;27;20472;-38
2022/05/29 01:20:21;;;;;;;1.70;0.50;;;24.20;34.10;;;;;;5138883;27;20094;-39
2022/05/29 01:23:30;;;;;;;2.47;0.65;;;24.20;34.10;;;;;;5143179;27;20076;-37
2022/05/29 01:26:14;;;;;;;1.50;0.50;;;24.20;34.10;;;;;;5109281;27;20068;-39
2022/05/29 01:28:56;;;;;;;2.25;0.68;;;24.20;34.20;;;;;;5141174;27;20015;-43
2022/05/29 01:31:25;;;;;;;1.92;0.50;;;24.20;34.10;;;;;;5139057;27;20096;-37
2022/05/29 01:34:25;;;;;;;2.53;0.80;;;24.20;34.10;;;;;;5141111;27;20031;-39
2022/05/29 01:37:12;;;;;;;1.35;0.45;;;24.10;34.10;;;;;;5137713;27;20007;-39
2022/05/29 01:39:58;;;;;;;2.08;0.60;;;24.10;34.20;;;;;;5138280;27;20019;-37
2022/05/29 01:42:32;;;;;;;3.92;0.70;;;24.10;34.20;;;;;;5138061;27;20011;-37
2022/05/29 01:45:03;;;;;;;1.27;0.43;;;24.10;34.20;;;;;;5137269;27;20029;-39
2022/05/29 01:47:46;;;;;;;1.83;0.60;;;24.10;34.30;;;;;;5137803;27;20007;-36
2022/05/29 01:50:16;;;;;;;2.00;0.60;;;24.10;34.30;;;;;;5135848;27;20469;-37
2022/05/29 01:53:14;;;;;;;1.75;0.70;;;24.10;34.30;;;;;;5136509;27;20012;-37
2022/05/29 01:55:47;;;;;;;1.70;0.60;;;24.10;34.30;;;;;;5129110;27;20114;-38
2022/05/29 01:58:18;;;;;;;2.05;0.60;;;24.10;34.30;;;;;;5120143;27;20019;-37
2022/05/29 02:00:44;;;;;;;1.77;0.60;;;24.10;34.30;;;;;;5138853;27;20019;-40
2022/05/29 02:03:31;;;;;;;2.53;0.60;;;24.10;34.40;;;;;;5137790;27;20098;-40
2022/05/29 02:05:59;;;;;;;1.10;0.63;;;24.10;34.40;;;;;;5137615;27;20088;-40
2022/05/29 02:08:51;;;;;;;2.85;0.70;;;24.10;34.30;;;;;;5119405;27;20038;-40
2022/05/29 02:11:24;;;;;;;2.08;0.70;;;24.10;34.40;;;;;;5136938;27;20015;-38
2022/05/29 02:13:59;;;;;;;2.40;0.50;;;24.10;34.30;;;;;;5135268;27;20059;-37
2022/05/29 02:16:52;;;;;;;2.35;0.60;;;24.10;34.40;;;;;;5135013;27;20020;-37
2022/05/29 02:19:24;;;;;;;2.65;0.60;;;24.10;34.40;;;;;;5136168;27;20014;-41
2022/05/29 02:21:56;;;;;;;2.53;0.77;;;24.10;34.40;;;;;;5134411;27;20035;-37
2022/05/29 02:24:24;;;;;;;1.95;0.50;;;24.10;34.40;;;;;;5136583;27;20015;-37
2022/05/29 02:27:03;;;;;;;1.70;0.50;;;24.10;34.50;;;;;;5118571;27;20032;-39
2022/05/29 02:29:29;;;;;;;2.08;0.77;;;24.10;34.40;;;;;;5134221;27;20413;-38
2022/05/29 02:32:08;;;;;;;2.08;0.60;;;24.10;34.50;;;;;;5135293;27;20107;-38
2022/05/29 02:34:45;;;;;;;2.10;0.55;;;24.10;34.50;;;;;;5133962;27;20030;-37
2022/05/29 02:37:28;;;;;;;2.25;0.70;;;24.00;34.40;;;;;;5134338;27;20022;-38
2022/05/29 02:40:20;;;;;;;1.40;0.55;;;24.00;34.40;;;;;;5118752;27;20011;-39
2022/05/29 02:43:17;;;;;;;1.55;0.50;;;24.00;34.40;;;;;;5051898;28;20064;-39
2022/05/29 02:45:56;;;;;;;1.20;0.40;;;24.10;34.50;;;;;;5051688;28;20424;-37
2022/05/29 02:48:30;;;;;;;1.92;0.60;;;24.10;34.50;;;;;;5035744;28;20580;-41
2022/05/29 02:51:12;;;;;;;1.48;0.60;;;24.00;34.50;;;;;;5053589;28;20044;-38
2022/05/29 02:53:43;;;;;;;2.00;0.63;;;24.00;34.50;;;;;;5054207;28;20665;-40
2022/05/29 02:56:09;;;;;;;1.48;0.50;;;24.00;34.60;;;;;;5055243;28;20021;-38
2022/05/29 02:58:35;;;;;;;1.25;0.40;;;24.00;34.60;;;;;;5055448;28;20045;-38
2022/05/29 03:01:02;;;;;;;2.03;0.50;;;24.10;34.70;;;;;;5038355;28;20067;-38
2022/05/29 03:03:34;;;;;;;2.20;0.50;;;24.00;35.20;;;;;;5053619;28;20045;-38
2022/05/29 03:06:08;;;;;;;1.30;0.50;;;24.00;34.70;;;;;;5037383;28;20029;-38
2022/05/29 03:08:37;;;;;;;2.65;0.80;;;24.00;34.70;;;;;;5038560;28;20051;-43
2022/05/29 03:11:16;;;;;;;1.63;0.60;;;24.00;34.70;;;;;;5058419;28;20031;-43
2022/05/29 03:13:58;;;;;;;1.20;0.50;;;24.00;34.70;;;;;;5058136;28;20032;-38
2022/05/29 03:16:32;;;;;;;1.10;0.45;;;24.00;34.70;;;;;;5057840;28;20025;-40
2022/05/29 03:19:12;;;;;;;1.50;0.50;;;24.00;34.80;;;;;;5064533;28;20122;-43
2022/05/29 03:22:12;;;;;;;2.08;0.60;;;24.00;34.80;;;;;;5121744;28;20519;-40
2022/05/29 03:24:42;;;;;;;2.20;0.57;;;24.00;34.80;;;;;;5139802;28;20054;-40
2022/05/29 03:27:24;;;;;;;1.77;0.50;;;24.00;34.90;;;;;;5140938;27;20015;-38
2022/05/29 03:30:10;;;;;;;1.25;0.40;;;23.90;34.80;;;;;;5139597;28;20060;-41
2022/05/29 03:32:35;;;;;;;0.88;0.40;;;23.90;34.90;;;;;;5139801;27;20020;-40
2022/05/29 03:35:15;;;;;;;1.13;0.45;;;23.90;34.90;;;;;;5121343;28;20389;-39
2022/05/29 03:37:41;;;;;;;1.60;0.50;;;24.00;35.00;;;;;;5138553;28;20019;-38
2022/05/29 03:40:09;;;;;;;1.92;0.60;;;24.00;34.90;;;;;;5138606;28;20023;-39
2022/05/29 03:42:35;;;;;;;1.10;0.65;;;23.90;34.90;;;;;;5138989;27;20020;-38
2022/05/29 03:45:02;;;;;;;1.33;0.50;;;23.90;35.00;;;;;;5139103;28;20034;-40
2022/05/29 03:47:29;;;;;;;1.33;0.40;;;23.90;35.00;;;;;;5139450;27;20063;-41
2022/05/29 03:49:54;;;;;;;2.35;0.43;;;23.90;35.00;;;;;;5138459;28;20064;-40
2022/05/29 03:52:21;;;;;;;1.70;0.70;;;23.90;35.10;;;;;;5137978;27;20407;-43
2022/05/29 03:54:47;;;;;;;2.13;0.60;;;23.90;35.00;;;;;;5139592;27;20080;-38
2022/05/29 03:57:13;;;;;;;2.80;0.77;;;23.90;35.00;;;;;;5139326;27;20400;-39
2022/05/29 03:59:39;;;;;;;1.60;0.50;;;23.90;35.60;;;;;;5138535;27;20094;-38
2022/05/29 04:02:06;;;;;;;1.90;0.60;;;23.90;35.10;;;;;;5138707;27;20066;-38
2022/05/29 04:04:32;;;;;;;1.35;0.60;;;23.90;35.10;;;;;;5138767;27;20068;-37
2022/05/29 04:07:00;;;;;;;3.78;0.93;;;24.00;35.10;;;;;;5139204;27;20020;-38
2022/05/29 04:12:13;;;;;;;1.48;0.50;;;23.90;35.10;;;;;;5139950;27;20066;-42
2022/05/29 04:14:40;;;;;;;1.27;0.50;;;23.90;35.10;;;;;;5139798;27;20106;-38
2022/05/29 04:17:07;;;;;;;1.83;0.55;;;23.90;35.10;;;;;;5139633;27;20038;-37
2022/05/29 04:19:34;;;;;;;1.67;0.40;;;23.90;35.10;;;;;;5139850;27;20023;-38
2022/05/29 04:22:05;;;;;;;1.90;0.50;;;23.90;35.10;;;;;;5139999;27;20035;-39
2022/05/29 04:24:31;;;;;;;1.25;0.52;;;23.90;35.20;;;;;;5141242;27;20015;-38
2022/05/29 04:26:57;;;;;;;2.25;0.65;;;23.90;35.20;;;;;;5140039;27;20023;-40
2022/05/29 04:29:23;;;;;;;1.42;0.40;;;23.90;35.20;;;;;;5141679;27;20015;-40
2022/05/29 04:34:35;;;;;;;1.95;0.60;;;24.10;35.00;;;;;;5138727;27;20562;-39
2022/05/29 04:37:01;;;;;;;2.28;0.57;;;24.10;34.90;;;;;;5141617;27;20483;-40
2022/05/29 04:39:27;;;;;;;1.58;0.60;;;24.20;34.90;;;;;;5142780;27;20014;-40
2022/05/29 04:41:55;;;;;;;2.13;0.60;;;24.30;34.80;;;;;;5143258;27;20054;-39
2022/05/29 04:44:21;;;;;;;1.33;0.45;;;24.40;34.60;;;;;;5141143;27;20028;-38
2022/05/29 04:46:49;;;;;;;0.75;0.30;;;24.40;34.40;;;;;;5140668;27;20474;-39
2022/05/29 04:49:15;;;;;;;1.17;0.45;;;24.60;34.40;;;;;;5141403;27;20008;-38
2022/05/29 04:51:42;;;;;;;1.30;0.45;;;24.60;34.20;;;;;;5138725;27;20089;-38
2022/05/29 04:54:08;;;;;;;1.15;0.45;;;24.80;34.00;;;;;;5137808;27;20023;-38
2022/05/29 04:56:35;;;;;;;0.88;0.40;;;24.90;33.90;;;;;;5138252;27;20076;-39
2022/05/29 04:59:01;;;;;;;1.42;0.60;;;25.00;33.60;;;;;;5138104;27;20465;-39
2022/05/29 05:01:28;;;;;;;0.98;0.40;;;25.20;33.50;;;;;;5138716;27;20076;-38
2022/05/29 05:03:54;;;;;;;1.17;0.40;;;25.30;33.20;;;;;;5136026;27;20049;-39
2022/05/29 05:06:20;;;;;;;1.33;0.40;;;25.40;33.10;;;;;;5139224;27;20030;-38
2022/05/29 05:08:46;;;;;;;1.00;0.30;;;25.50;32.90;;;;;;5141058;27;20075;-38
2022/05/29 05:11:11;;;;;;;2.33;1.05;;;25.60;32.80;;;;;;5142101;27;20016;-39
2022/05/29 05:13:38;;;;;;;0.82;0.40;;;25.70;32.60;;;;;;5141960;27;20034;-39
2022/05/29 05:16:04;;;;;;;1.30;0.45;;;25.80;32.50;;;;;;5142079;27;20035;-39
2022/05/29 05:18:31;;;;;;;1.33;0.43;;;26.00;32.30;;;;;;5140681;27;20023;-40
2022/05/29 05:20:57;;;;;;;1.65;0.70;;;26.00;32.10;;;;;;5121340;27;20043;-38
2022/05/29 05:23:22;;;;;;;1.13;0.40;;;26.20;32.00;;;;;;5138025;27;20016;-38
2022/05/29 05:25:48;;;;;;;1.80;0.63;;;26.30;31.80;;;;;;5137674;27;20023;-40
2022/05/29 05:28:14;;;;;;;1.48;0.40;;;26.40;31.70;;;;;;5137372;27;20090;-40
2022/05/29 05:30:40;;;;;;;0.93;0.40;;;26.50;31.60;;;;;;5138504;27;20038;-40
2022/05/29 05:33:07;;;;;;;1.55;0.60;;;26.60;31.40;;;;;;5138919;27;20011;-42
2022/05/29 05:35:33;;;;;;;2.03;0.55;;;26.70;31.30;;;;;;5139056;27;20480;-38
2022/05/29 05:37:59;;;;;;;1.42;0.60;;;26.80;31.20;;;;;;5138549;27;20106;-38
2022/05/29 05:40:26;;;;;;;1.10;0.52;;;26.90;31.00;;;;;;5138512;27;20019;-40
2022/05/29 05:42:52;;;;;;;1.42;0.65;;;26.90;30.90;;;;;;5139009;27;20487;-39
2022/05/29 05:45:19;;;;;;;1.10;0.50;;;27.10;30.80;;;;;;5138699;27;20027;-41
2022/05/29 05:47:45;;;;;;;1.02;0.40;;;27.20;30.70;;;;;;5138658;27;20012;-39
2022/05/29 05:50:12;;;;;;;0.93;0.40;;;27.20;30.60;;;;;;5140118;27;20027;-41
2022/05/29 05:52:38;;;;;;;1.98;0.73;;;27.40;30.40;;;;;;5136945;27;20082;-39
2022/05/29 05:55:06;;;;;;;2.05;0.47;;;27.40;30.30;;;;;;5136771;27;20019;-41
2022/05/29 05:57:32;;;;;;;1.42;0.47;;;27.50;30.20;;;;;;5135317;27;20103;-43
2022/05/29 05:59:59;;;;;;;1.08;0.50;;;27.60;30.10;;;;;;5136734;27;20025;-39
2022/05/29 06:02:26;;;;;;;1.98;0.50;;;27.70;30.00;;;;;;5136429;27;20473;-39
2022/05/29 06:04:52;;;;;;;1.13;0.35;;;27.80;30.00;;;;;;5136205;27;20054;-39
2022/05/29 06:07:18;;;;;;;1.42;0.63;;;27.90;29.90;;;;;;5137191;27;20067;-46
2022/05/29 06:09:44;;;;;;;1.70;0.40;;;28.00;29.90;;;;;;5137824;27;20019;-41
2022/05/29 06:12:10;;;;;;;0.80;0.50;;;28.00;29.70;;;;;;5137182;27;20144;-40
2022/05/29 06:14:36;;;;;;;1.73;0.50;;;28.10;29.60;;;;;;5136907;27;20020;-40
2022/05/29 06:17:04;;;;;;;1.80;0.70;;;28.20;29.50;;;;;;5138076;27;20014;-39
2022/05/29 06:19:30;;;;;;;1.35;0.50;;;28.30;29.50;;;;;;5138948;27;20016;-38
2022/05/29 06:21:57;;;;;;;0.85;0.40;;;28.30;29.40;;;;;;5138951;27;20043;-40
2022/05/29 06:24:24;;;;;;;1.85;0.45;;;28.40;29.30;;;;;;5138955;27;20019;-43
2022/05/29 06:26:50;;;;;;;1.73;0.55;;;28.50;29.20;;;;;;5137841;27;20067;-40
2022/05/29 06:29:18;;;;;;;1.45;0.40;;;28.60;29.10;;;;;;5138353;27;20035;-40
2022/05/29 06:31:44;;;;;;;1.88;0.55;;;28.70;29.10;;;;;;5136270;27;20092;-37
2022/05/29 06:34:10;;;;;;;0.70;0.40;;;28.70;29.10;;;;;;5135833;27;20051;-38
2022/05/29 06:36:36;;;;;;;1.85;0.40;;;28.80;29.00;;;;;;5136712;27;20396;-39
2022/05/29 06:39:03;;;;;;;1.27;0.60;;;28.90;28.90;;;;;;5136844;27;20018;-40
2022/05/29 06:41:30;;;;;;;2.50;0.60;;;29.00;28.80;;;;;;5137426;27;20034;-39
2022/05/29 06:43:56;;;;;;;1.15;0.40;;;29.10;28.80;;;;;;5136451;27;20401;-39
2022/05/29 06:46:22;;;;;;;1.33;0.55;;;29.20;28.70;;;;;;5136586;27;20030;-39
2022/05/29 06:48:48;;;;;;;1.98;0.50;;;29.10;28.60;;;;;;5137091;27;20094;-40
2022/05/29 06:51:24;;;;;;;1.75;0.60;;;29.00;28.60;;;;;;5136644;27;20037;-40
2022/05/29 06:54:07;;;;;;;1.25;0.43;;;28.90;28.80;;;;;;5136748;27;20465;-42
2022/05/29 06:56:39;;;;;;;2.60;0.40;;;28.60;29.00;;;;;;5136192;27;20019;-40
2022/05/29 06:59:06;;;;;;;1.05;0.50;;;28.40;29.20;;;;;;5136649;27;20030;-41
2022/05/29 07:06:59;;;;;;;1.10;0.50;;;28.00;29.60;;;;;;5135461;27;20442;-39
2022/05/29 07:07:22;;;;;;;1.60;0.57;;;27.70;29.80;;;;;;5134258;28;20031;-39
2022/05/29 07:09:47;;;;;;;2.03;0.55;;;27.60;30.00;;;;;;5134325;28;20076;-38
2022/05/29 07:12:27;;;;;;;2.30;0.43;;;27.50;30.10;;;;;;5135791;28;20064;-38
2022/05/29 07:15:00;;;;;;;2.42;0.63;;;27.40;30.10;;;;;;5118243;28;20026;-38
2022/05/29 07:17:27;;;;;;;1.95;0.50;;;27.40;30.20;;;;;;5135735;27;20027;-38
2022/05/29 07:19:53;;;;;;;2.10;0.50;;;27.30;30.40;;;;;;5134776;28;20015;-39
2022/05/29 07:22:20;;;;;;;1.00;0.50;;;27.20;30.40;;;;;;5134617;27;20092;-37
2022/05/29 07:24:45;;;;;;;1.17;0.40;;;27.10;30.50;;;;;;5135645;28;20031;-40
2022/05/29 07:27:11;;;;;;;2.78;0.77;;;27.00;30.60;;;;;;5136282;27;20011;-39
2022/05/29 07:29:37;;;;;;;2.28;0.70;;;26.90;30.70;;;;;;5138475;27;20015;-39
2022/05/29 07:32:03;;;;;;;2.33;0.70;;;26.80;30.90;;;;;;5139458;27;20015;-38
2022/05/29 07:34:30;;;;;;;1.70;0.50;;;26.60;31.60;;;;;;5140402;27;20593;-38
2022/05/29 07:37:02;;;;;;;2.30;0.60;;;26.50;31.20;;;;;;5139834;27;20046;-41
2022/05/29 07:39:28;;;;;;;1.60;0.50;;;26.40;31.40;;;;;;5140537;27;20007;-40
2022/05/29 07:44:39;;;;;;;3.38;0.73;;;26.20;31.70;;;;;;5141076;27;20030;-38
2022/05/29 07:47:07;;;;;;;1.17;0.52;;;26.10;31.90;;;;;;5141063;27;20027;-39
2022/05/29 07:49:34;;;;;;;1.70;0.60;;;26.10;32.00;;;;;;5141089;27;20604;-38
2022/05/29 07:52:00;;;;;;;1.60;0.60;;;26.00;32.10;;;;;;5138623;27;20035;-38
2022/05/29 07:54:26;;;;;;;1.17;0.50;;;26.00;32.20;;;;;;5139821;27;20019;-38
2022/05/29 07:56:52;;;;;;;3.53;0.70;;;25.90;32.30;;;;;;5121048;27;20050;-39
2022/05/29 07:59:19;;;;;;;1.60;0.60;;;25.90;32.40;;;;;;5138844;27;20050;-37
2022/05/29 08:01:44;;;;;;;1.38;0.47;;;25.90;32.40;;;;;;5138878;27;20071;-38
2022/05/29 08:04:10;;;;;;;1.83;0.45;;;25.80;32.40;;;;;;5138469;27;20015;-38
2022/05/29 08:06:36;;;;;;;2.05;0.60;;;25.80;32.40;;;;;;5137833;27;20023;-38
2022/05/29 08:09:02;;;;;;;3.38;0.80;;;25.90;32.40;;;;;;5137322;27;20533;-37
2022/05/29 08:11:29;;;;;;;1.50;0.55;;;25.90;32.80;;;;;;5139222;27;20019;-37
2022/05/29 08:13:54;;;;;;;1.48;0.60;;;26.00;32.10;;;;;;5138833;27;20507;-39
2022/05/29 08:16:21;;;;;;;1.90;0.63;;;26.20;31.90;;;;;;5138799;27;20019;-37
2022/05/29 08:18:47;;;;;;;1.77;0.80;;;26.20;31.60;;;;;;5139145;27;20023;-37
2022/05/29 08:21:13;;;;;;;1.63;0.52;;;26.30;31.60;;;;;;5138970;27;20134;-37
2022/05/29 08:23:41;;;;;;;1.85;0.77;;;26.40;31.70;;;;;;5139407;27;20015;-38
2022/05/29 08:31:35;;;;;;;1.38;0.50;;;26.90;31.00;;;;;;5139890;27;20030;-37
2022/05/29 08:34:02;;;;;;;1.52;0.50;;;27.20;30.70;;;;;;5138584;27;20525;-38
2022/05/29 08:36:28;;;;;;;1.35;0.60;;;27.40;30.40;;;;;;5139474;27;20044;-40
2022/05/29 08:38:56;;;;;;;2.63;0.88;;;27.50;30.70;;;;;;5139137;27;20083;-36
2022/05/29 08:41:42;;;;;;;1.20;0.60;;;27.60;29.90;;;;;;5140756;27;20458;-37
2022/05/29 08:44:43;;;;;;;2.05;0.50;;;27.70;29.90;;;;;;5138391;27;20015;-37
2022/05/29 08:47:09;;;;;;;1.95;0.57;;;27.70;29.80;;;;;;5125989;27;20030;-38
2022/05/29 08:49:40;;;;;;;1.65;0.60;;;27.80;29.90;;;;;;5140113;27;20140;-38
2022/05/29 08:52:15;;;;;;;1.27;0.50;;;27.70;29.70;;;;;;5136760;27;20011;-38
2022/05/29 08:55:25;;;;;;;0.80;0.40;;;27.70;29.90;;;;;;5137419;27;20545;-37
2022/05/29 08:57:54;;;;;;;1.02;0.43;;;27.60;30.00;;;;;;5135603;27;20000;-37
2022/05/29 09:00:42;;;;;;;1.00;0.50;;;27.50;30.10;;;;;;5136581;27;20094;-39
2022/05/29 09:03:18;;;;;;;1.35;0.40;;;27.60;30.10;;;;;;5137051;27;20015;-37
2022/05/29 09:05:56;;;;;;;1.83;0.50;;;27.70;30.00;;;;;;5137050;27;20056;-37
2022/05/29 09:08:30;;;;;;;1.15;0.40;;;28.00;29.80;;;;;;5135938;27;20011;-37
2022/05/29 09:11:13;;;;;;;2.25;0.73;;;28.10;29.60;;;;;;5120223;27;20011;-38
2022/05/29 09:13:56;;;;;;;1.48;0.50;;;28.30;29.40;;;;;;5137760;27;20014;-42
2022/05/29 09:16:23;;;;;;;1.58;0.63;;;28.40;29.30;;;;;;5137241;27;20046;-37
2022/05/29 09:18:54;;;;;;;0.98;0.43;;;28.60;29.30;;;;;;5137104;27;20019;-39
2022/05/29 09:21:22;;;;;;;1.63;0.70;;;28.50;29.10;;;;;;5135844;27;20497;-37
2022/05/29 09:24:26;;;;;;;1.83;0.57;;;28.50;29.40;;;;;;5136170;27;20019;-38
2022/05/29 09:26:52;;;;;;;2.25;0.50;;;28.40;29.20;;;;;;5136698;27;20477;-39
2022/05/29 09:29:17;;;;;;;1.52;0.50;;;28.30;29.30;;;;;;5136123;27;20018;-39
2022/05/29 09:31:43;;;;;;;0.70;0.40;;;28.10;29.40;;;;;;5136756;27;20007;-37
2022/05/29 09:34:10;;;;;;;1.60;0.40;;;28.00;29.50;;;;;;5136379;27;20470;-37
2022/05/29 09:36:57;;;;;;;2.03;0.60;;;27.80;29.70;;;;;;5136615;27;20106;-38
2022/05/29 09:39:25;;;;;;;1.70;0.60;;;27.70;29.90;;;;;;5136854;27;20026;-38
2022/05/29 09:42:03;;;;;;;2.15;0.47;;;27.60;30.00;;;;;;5137829;27;20493;-39
2022/05/29 09:44:29;;;;;;;1.10;0.70;;;27.50;30.00;;;;;;5137311;27;20110;-37
2022/05/29 09:49:40;;;;;;;1.67;0.50;;;27.50;30.00;;;;;;5119130;27;20437;-40
2022/05/29 09:49:40;;;;;;;1.50;0.40;;;27.50;30.00;;;;;;5136517;27;20396;-37
2022/05/29 09:52:11;;;;;;;1.48;0.40;;;27.40;30.00;;;;;;5137282;27;20098;-41
2022/05/29 09:54:50;;;;;;;1.55;0.55;;;27.40;30.20;;;;;;5121152;27;20061;-38
2022/05/29 09:57:49;;;;;;;1.65;0.65;;;27.40;30.20;;;;;;5137749;27;20049;-38
2022/05/29 10:00:36;;;;;;;1.45;0.40;;;27.40;30.20;;;;;;5123666;27;20053;-40
2022/05/29 10:03:02;;;;;;;0.68;0.30;;;27.30;30.20;;;;;;5138088;27;20008;-39
2022/05/29 10:05:29;;;;;;;0.82;0.40;;;27.30;30.20;;;;;;5136860;27;20026;-37
2022/05/29 10:07:58;;;;;;;1.33;0.50;;;27.20;30.30;;;;;;5136501;27;20039;-37
2022/05/29 10:10:28;;;;;;;1.88;0.50;;;27.20;30.40;;;;;;5137003;27;20018;-42
2022/05/29 10:12:57;;;;;;;1.55;0.57;;;27.10;30.50;;;;;;5136631;27;20007;-38
2022/05/29 10:15:25;;;;;;;1.38;0.50;;;27.00;30.60;;;;;;5137308;27;20038;-38
2022/05/29 10:18:00;;;;;;;1.45;0.50;;;26.90;30.70;;;;;;5137144;27;20031;-38
2022/05/29 10:20:33;;;;;;;1.25;0.52;;;26.80;30.90;;;;;;5135853;27;20011;-37
2022/05/29 10:23:23;;;;;;;0.68;0.40;;;26.80;30.90;;;;;;5115811;28;20111;-39
2022/05/29 10:26:01;;;;;;;0.57;0.40;;;26.70;31.00;;;;;;5115061;28;20043;-37
2022/05/29 10:28:37;;;;;;;1.73;0.60;;;26.60;31.10;;;;;;5114988;28;20014;-38
2022/05/29 10:31:14;;;;;;;1.55;0.60;;;26.50;31.20;;;;;;5115754;28;20538;-37
2022/05/29 10:33:40;;;;;;;0.80;0.40;;;26.40;31.40;;;;;;5114686;28;20101;-37
2022/05/29 10:36:18;;;;;;;1.27;0.50;;;26.30;31.50;;;;;;5117025;28;20067;-38
2022/05/29 10:38:45;;;;;;;1.60;0.40;;;26.20;31.60;;;;;;5115661;28;20100;-38
2022/05/29 10:41:11;;;;;;;0.98;0.40;;;26.20;31.80;;;;;;5116878;28;20027;-39
2022/05/29 10:43:44;;;;;;;0.73;0.35;;;26.10;31.90;;;;;;5115033;28;20016;-37
2022/05/29 10:46:18;;;;;;;1.45;0.50;;;26.10;32.10;;;;;;5115928;28;20023;-38
2022/05/29 10:49:28;;;;;;;1.23;0.50;;;26.00;32.10;;;;;;5114832;28;20577;-42
2022/05/29 10:52:15;;;;;;;2.05;0.45;;;26.00;32.20;;;;;;5115241;28;20016;-40
2022/05/29 10:54:59;;;;;;;1.60;0.43;;;25.90;32.30;;;;;;5114337;28;20020;-38
2022/05/29 10:57:56;;;;;;;1.33;0.50;;;25.80;32.40;;;;;;5115396;28;20012;-38
2022/05/29 11:00:25;;;;;;;0.95;0.38;;;25.80;32.50;;;;;;5113863;28;20099;-38
2022/05/29 11:03:23;;;;;;;1.45;0.65;;;25.70;32.50;;;;;;5114737;28;20081;-37
2022/05/29 11:06:01;;;;;;;1.10;0.45;;;25.70;32.50;;;;;;5105543;28;20032;-39
2022/05/29 11:08:54;;;;;;;1.23;0.47;;;25.70;32.60;;;;;;5114788;28;20109;-38
2022/05/29 11:11:38;;;;;;;2.05;0.70;;;25.70;32.60;;;;;;5114832;28;20012;-38
2022/05/29 11:14:25;;;;;;;0.75;0.40;;;25.70;32.70;;;;;;5115253;28;20504;-38
2022/05/29 11:17:06;;;;;;;1.30;0.50;;;25.80;32.60;;;;;;5115157;28;20466;-38
2022/05/29 11:19:32;;;;;;;0.88;0.32;;;25.70;32.60;;;;;;5115055;28;20023;-38
2022/05/29 11:22:19;;;;;;;1.50;0.60;;;25.70;32.70;;;;;;5127910;28;20074;-38
2022/05/29 11:25:14;;;;;;;1.20;0.50;;;25.70;32.70;;;;;;5135454;28;20027;-38
2022/05/29 11:27:43;;;;;;;0.88;0.60;;;25.70;32.80;;;;;;5134476;28;20106;-39
2022/05/29 11:30:21;;;;;;;1.77;0.50;;;25.70;32.80;;;;;;5135920;28;20022;-47
2022/05/29 11:32:54;;;;;;;1.58;0.40;;;25.70;32.90;;;;;;5136162;28;20023;-38
2022/05/29 11:35:28;;;;;;;0.50;0.32;;;25.70;32.90;;;;;;5137545;27;20077;-38
2022/05/29 11:38:16;;;;;;;1.15;0.50;;;25.70;32.90;;;;;;5137332;28;20019;-38
2022/05/29 11:40:51;;;;;;;1.27;0.57;;;25.70;32.90;;;;;;5137297;28;20023;-38
2022/05/29 11:43:27;;;;;;;1.58;0.50;;;25.70;32.90;;;;;;5135424;28;20226;-39
2022/05/29 11:52:04;;;;;;;0.88;0.50;;;25.70;32.80;;;;;;5136002;28;20084;-38
2022/05/29 11:54:34;;;;;;;1.63;0.63;;;25.70;32.80;;;;;;5136403;27;20114;-38
2022/05/29 11:57:02;;;;;;;;;;;25.70;32.80;;;;;;5137848;27;20014;-38
2022/05/29 11:59:53;;;;;;;1.65;0.70;;;25.70;32.90;;;;;;5136895;28;19904;-38
2022/05/29 12:03:10;;;;;;;2.08;0.60;;;25.70;33.00;;;;;;5137549;28;20094;-38
2022/05/29 12:05:57;;;;;;;1.00;0.50;;;25.60;33.00;;;;;;5102702;27;20504;-41
2022/05/29 12:08:38;;;;;;;0.88;0.40;;;25.60;33.20;;;;;;5137505;28;20027;-39
2022/05/29 12:11:22;;;;;;;1.38;0.70;;;25.50;33.20;;;;;;5136247;28;20034;-37
2022/05/29 12:14:25;;;;;;;1.88;0.80;;;25.50;33.40;;;;;;5139732;27;20473;-38
2022/05/29 12:16:57;;;;;;;1.05;0.40;;;25.50;33.50;;;;;;5122281;27;20035;-39
2022/05/29 12:19:25;;;;;;;1.08;0.43;;;25.50;33.50;;;;;;5139926;27;20015;-36
2022/05/29 12:22:02;;;;;;;0.60;0.30;;;25.40;33.50;;;;;;5140032;27;20043;-36
2022/05/29 12:24:29;;;;;;;0.68;0.43;;;25.50;33.60;;;;;;5140231;27;20015;-38
2022/05/29 12:27:16;;;;;;;2.15;0.70;;;25.50;33.60;;;;;;5141959;27;20106;-38
2022/05/29 12:29:49;;;;;;;1.00;0.60;;;25.50;33.70;;;;;;5142941;27;20011;-38
2022/05/29 12:32:25;;;;;;;1.50;0.47;;;25.40;33.60;;;;;;5139829;27;20012;-37
2022/05/29 12:35:14;;;;;;;1.52;0.50;;;25.50;33.70;;;;;;5140753;27;20019;-37
2022/05/29 12:37:45;;;;;;;1.27;0.52;;;25.40;33.60;;;;;;5138755;27;20030;-37
2022/05/29 12:40:36;;;;;;;1.02;0.50;;;25.50;33.90;;;;;;5138329;27;20019;-37
2022/05/29 12:43:05;;;;;;;2.83;0.88;;;25.40;33.90;;;;;;5097545;27;20027;-37
2022/05/29 12:45:55;;;;;;;1.38;0.55;;;25.40;34.30;;;;;;5138969;27;20404;-36
2022/05/29 12:48:27;;;;;;;1.02;0.50;;;25.40;34.20;;;;;;5137872;27;20086;-37
2022/05/29 12:51:14;;;;;;;1.10;0.50;;;25.30;34.20;;;;;;5137848;27;20020;-36
2022/05/29 12:54:14;;;;;;;0.90;0.40;;;25.30;34.40;;;;;;5136871;27;20022;-36
2022/05/29 12:56:58;;;;;;;;;;;25.30;34.40;;;;;;5138299;27;20015;-36
2022/05/29 12:59:56;;;;;;;1.13;0.57;;;25.30;34.30;;;;;;5137978;27;19903;-37
2022/05/29 13:02:56;;;;;;;1.23;0.57;;;25.30;34.50;;;;;;5137331;27;20126;-36
2022/05/29 13:05:51;;;;;;;1.45;0.60;;;25.20;34.50;;;;;;5137728;27;20031;-37
2022/05/29 13:08:41;;;;;;;1.27;0.50;;;25.30;34.50;;;;;;5136968;27;20094;-36
2022/05/29 13:11:06;;;;;;;;;;;25.20;34.60;;;;;;5137504;27;20026;-36
2022/05/29 13:13:32;;;;;;;1.35;0.40;;;25.30;34.60;;;;;;5136891;27;19993;-36
2022/05/29 13:16:20;;;;;;;1.55;0.52;;;25.30;34.60;;;;;;5138582;27;20026;-36
2022/05/29 13:19:17;;;;;;;1.80;0.93;;;25.30;34.60;;;;;;5138907;27;20031;-39
2022/05/29 13:22:06;;;;;;;2.70;0.60;;;25.30;34.50;;;;;;5137797;27;20130;-36
2022/05/29 13:24:39;;;;;;;0.95;0.50;;;25.30;34.40;;;;;;5136173;27;20016;-40
2022/05/29 13:27:16;;;;;;;1.92;0.85;;;25.30;34.40;;;;;;5138012;27;20031;-36
2022/05/29 13:29:43;;;;;;;1.40;0.60;;;25.30;34.40;;;;;;5138391;27;20133;-37
2022/05/29 13:32:15;;;;;;;0.98;0.50;;;25.40;34.50;;;;;;5138672;27;20019;-37
2022/05/29 13:34:48;;;;;;;1.90;0.70;;;25.40;34.40;;;;;;5138395;27;20050;-36
2022/05/29 13:37:23;;;;;;;0.95;0.50;;;25.40;34.40;;;;;;5135920;27;20478;-39
2022/05/29 13:40:05;;;;;;;0.90;0.57;;;25.50;34.40;;;;;;5137323;27;20027;-36
2022/05/29 13:42:52;;;;;;;3.10;0.77;;;25.50;34.40;;;;;;5137069;27;20018;-36